sensor_id;sensor_type;location;lat;lon;timestamp;temperature;humidity
9425;DHT22;17139;52.140;11.636;2023-04-15T00:02:21;5.60;59.70
9425;DHT22;17139;52.140;11.636;2023-04-15T00:04:48;5.50;60.00
9425;DHT22;17139;52.140;11.636;2023-04-15T00:07:16;6.10;60.30
9425;DHT22;17139;52.140;11.636;2023-04-15T00:09:44;6.80;58.80
9425;DHT22;17139;52.140;11.636;2023-04-15T00:12:11;6.40;57.70
9425;DHT22;17139;52.140;11.636;2023-04-15T00:14:38;6.10;59.10
9425;DHT22;17139;52.140;11.636;2023-04-15T00:17:05;5.90;59.40
9425;DHT22;17139;52.140;11.636;2023-04-15T00:19:32;5.80;59.50
9425;DHT22;17139;52.140;11.636;2023-04-15T00:21:59;5.80;59.80
9425;DHT22;17139;52.140;11.636;2023-04-15T00:24:26;5.70;59.90
9425;DHT22;17139;52.140;11.636;2023-04-15T00:26:55;5.70;59.90
9425;DHT22;17139;52.140;11.636;2023-04-15T00:29:22;5.70;59.80
9425;DHT22;17139;52.140;11.636;2023-04-15T00:31:49;5.60;59.70
9425;DHT22;17139;52.140;11.636;2023-04-15T00:34:17;6.20;60.50
9425;DHT22;17139;52.140;11.636;2023-04-15T00:36:44;6.10;59.30
9425;DHT22;17139;52.140;11.636;2023-04-15T00:39:11;5.90;59.60
9425;DHT22;17139;52.140;11.636;2023-04-15T00:41:38;6.40;59.30
9425;DHT22;17139;52.140;11.636;2023-04-15T00:44:06;6.20;59.10
9425;DHT22;17139;52.140;11.636;2023-04-15T00:46:35;6.00;59.40
9425;DHT22;17139;52.140;11.636;2023-04-15T00:49:04;5.90;59.90
9425;DHT22;17139;52.140;11.636;2023-04-15T00:51:32;5.70;59.90
9425;DHT22;17139;52.140;11.636;2023-04-15T00:54:01;5.70;60.40
9425;DHT22;17139;52.140;11.636;2023-04-15T00:56:29;5.60;60.50
9425;DHT22;17139;52.140;11.636;2023-04-15T00:58:56;5.60;60.40
9425;DHT22;17139;52.140;11.636;2023-04-15T01:01:26;5.50;60.30
9425;DHT22;17139;52.140;11.636;2023-04-15T01:03:55;5.50;60.40
9425;DHT22;17139;52.140;11.636;2023-04-15T01:06:23;5.50;60.60
9425;DHT22;17139;52.140;11.636;2023-04-15T01:08:52;5.50;60.80
9425;DHT22;17139;52.140;11.636;2023-04-15T01:11:19;5.80;60.80
9425;DHT22;17139;52.140;11.636;2023-04-15T01:13:47;5.70;60.00
9425;DHT22;17139;52.140;11.636;2023-04-15T01:16:14;5.60;60.10
9425;DHT22;17139;52.140;11.636;2023-04-15T01:18:43;5.60;60.30
9425;DHT22;17139;52.140;11.636;2023-04-15T01:21:10;5.60;60.60
9425;DHT22;17139;52.140;11.636;2023-04-15T01:23:38;5.50;60.80
9425;DHT22;17139;52.140;11.636;2023-04-15T01:26:07;5.50;60.70
9425;DHT22;17139;52.140;11.636;2023-04-15T01:28:35;5.50;60.80
9425;DHT22;17139;52.140;11.636;2023-04-15T01:31:09;5.50;60.60
9425;DHT22;17139;52.140;11.636;2023-04-15T01:33:38;5.50;60.80
9425;DHT22;17139;52.140;11.636;2023-04-15T01:36:06;5.50;60.90
9425;DHT22;17139;52.140;11.636;2023-04-15T01:38:34;5.50;60.80
9425;DHT22;17139;52.140;11.636;2023-04-15T01:41:01;5.50;60.90
9425;DHT22;17139;52.140;11.636;2023-04-15T01:43:30;5.60;61.10
9425;DHT22;17139;52.140;11.636;2023-04-15T01:45:58;5.60;60.40
9425;DHT22;17139;52.140;11.636;2023-04-15T01:48:25;5.60;60.60
9425;DHT22;17139;52.140;11.636;2023-04-15T01:50:53;5.50;61.10
9425;DHT22;17139;52.140;11.636;2023-04-15T01:53:22;5.50;61.10
9425;DHT22;17139;52.140;11.636;2023-04-15T01:55:49;5.50;61.10
9425;DHT22;17139;52.140;11.636;2023-04-15T01:58:16;5.50;61.10
9425;DHT22;17139;52.140;11.636;2023-04-15T02:00:45;5.40;61.00
9425;DHT22;17139;52.140;11.636;2023-04-15T02:03:12;5.50;61.30
9425;DHT22;17139;52.140;11.636;2023-04-15T02:05:39;5.40;61.20
9425;DHT22;17139;52.140;11.636;2023-04-15T02:08:07;5.40;60.90
9425;DHT22;17139;52.140;11.636;2023-04-15T02:10:34;5.50;61.40
9425;DHT22;17139;52.140;11.636;2023-04-15T02:13:01;5.60;61.50
9425;DHT22;17139;52.140;11.636;2023-04-15T02:15:29;6.00;61.10
9425;DHT22;17139;52.140;11.636;2023-04-15T02:17:57;5.90;60.40
9425;DHT22;17139;52.140;11.636;2023-04-15T02:20:25;5.70;60.80
9425;DHT22;17139;52.140;11.636;2023-04-15T02:22:52;5.60;61.30
9425;DHT22;17139;52.140;11.636;2023-04-15T02:25:19;5.50;62.40
9425;DHT22;17139;52.140;11.636;2023-04-15T02:27:46;5.50;61.70
9425;DHT22;17139;52.140;11.636;2023-04-15T02:30:14;5.40;61.40
9425;DHT22;17139;52.140;11.636;2023-04-15T02:32:41;5.50;61.70
9425;DHT22;17139;52.140;11.636;2023-04-15T02:35:11;5.50;61.60
9425;DHT22;17139;52.140;11.636;2023-04-15T02:37:38;5.50;61.60
9425;DHT22;17139;52.140;11.636;2023-04-15T02:40:09;5.50;61.50
9425;DHT22;17139;52.140;11.636;2023-04-15T02:42:37;6.40;60.90
9425;DHT22;17139;52.140;11.636;2023-04-15T02:45:05;6.10;60.60
9425;DHT22;17139;52.140;11.636;2023-04-15T02:47:33;5.90;61.00
9425;DHT22;17139;52.140;11.636;2023-04-15T02:50:02;6.70;60.60
9425;DHT22;17139;52.140;11.636;2023-04-15T02:52:30;6.40;59.40
9425;DHT22;17139;52.140;11.636;2023-04-15T02:54:57;6.10;60.90
9425;DHT22;17139;52.140;11.636;2023-04-15T02:57:27;5.90;61.30
9425;DHT22;17139;52.140;11.636;2023-04-15T02:59:54;5.80;61.60
9425;DHT22;17139;52.140;11.636;2023-04-15T03:02:22;5.70;61.70
9425;DHT22;17139;52.140;11.636;2023-04-15T03:04:49;5.70;62.10
9425;DHT22;17139;52.140;11.636;2023-04-15T03:07:19;5.60;62.00
9425;DHT22;17139;52.140;11.636;2023-04-15T03:09:47;5.60;62.10
9425;DHT22;17139;52.140;11.636;2023-04-15T03:12:14;5.60;62.30
9425;DHT22;17139;52.140;11.636;2023-04-15T03:14:41;5.60;62.30
9425;DHT22;17139;52.140;11.636;2023-04-15T03:17:08;5.60;62.20
9425;DHT22;17139;52.140;11.636;2023-04-15T03:19:35;6.20;62.50
9425;DHT22;17139;52.140;11.636;2023-04-15T03:22:02;6.90;60.50
9425;DHT22;17139;52.140;11.636;2023-04-15T03:24:29;6.40;59.50
9425;DHT22;17139;52.140;11.636;2023-04-15T03:26:57;6.20;61.40
9425;DHT22;17139;52.140;11.636;2023-04-15T03:29:26;5.90;61.70
9425;DHT22;17139;52.140;11.636;2023-04-15T03:31:53;5.80;62.10
9425;DHT22;17139;52.140;11.636;2023-04-15T03:34:20;5.80;62.50
9425;DHT22;17139;52.140;11.636;2023-04-15T03:36:47;5.70;62.60
9425;DHT22;17139;52.140;11.636;2023-04-15T03:39:14;5.70;62.50
9425;DHT22;17139;52.140;11.636;2023-04-15T03:41:41;5.70;62.50
9425;DHT22;17139;52.140;11.636;2023-04-15T03:44:10;5.60;62.80
9425;DHT22;17139;52.140;11.636;2023-04-15T03:46:37;5.70;63.00
9425;DHT22;17139;52.140;11.636;2023-04-15T03:49:05;5.60;62.70
9425;DHT22;17139;52.140;11.636;2023-04-15T03:51:32;5.60;62.80
9425;DHT22;17139;52.140;11.636;2023-04-15T03:53:59;5.60;62.60
9425;DHT22;17139;52.140;11.636;2023-04-15T03:56:26;5.70;62.90
9425;DHT22;17139;52.140;11.636;2023-04-15T03:58:53;5.60;63.00
9425;DHT22;17139;52.140;11.636;2023-04-15T04:01:22;5.60;63.00
9425;DHT22;17139;52.140;11.636;2023-04-15T04:03:49;5.60;62.70
9425;DHT22;17139;52.140;11.636;2023-04-15T04:06:16;5.60;62.70
9425;DHT22;17139;52.140;11.636;2023-04-15T04:08:43;5.60;62.80
9425;DHT22;17139;52.140;11.636;2023-04-15T04:11:10;5.60;62.60
9425;DHT22;17139;52.140;11.636;2023-04-15T04:13:37;5.60;62.80
9425;DHT22;17139;52.140;11.636;2023-04-15T04:16:05;5.60;62.50
9425;DHT22;17139;52.140;11.636;2023-04-15T04:18:33;5.70;62.50
9425;DHT22;17139;52.140;11.636;2023-04-15T04:21:01;5.70;62.70
9425;DHT22;17139;52.140;11.636;2023-04-15T04:23:27;5.70;62.70
9425;DHT22;17139;52.140;11.636;2023-04-15T04:25:55;6.20;62.80
9425;DHT22;17139;52.140;11.636;2023-04-15T04:28:22;6.10;61.90
9425;DHT22;17139;52.140;11.636;2023-04-15T04:30:49;6.00;62.20
9425;DHT22;17139;52.140;11.636;2023-04-15T04:33:16;5.90;62.50
9425;DHT22;17139;52.140;11.636;2023-04-15T04:35:44;5.80;62.40
9425;DHT22;17139;52.140;11.636;2023-04-15T04:38:11;5.80;62.70
9425;DHT22;17139;52.140;11.636;2023-04-15T04:40:38;5.80;63.00
9425;DHT22;17139;52.140;11.636;2023-04-15T04:43:05;5.80;62.90
9425;DHT22;17139;52.140;11.636;2023-04-15T04:45:32;5.70;62.90
9425;DHT22;17139;52.140;11.636;2023-04-15T04:47:59;5.80;63.00
9425;DHT22;17139;52.140;11.636;2023-04-15T04:50:26;5.80;62.90
9425;DHT22;17139;52.140;11.636;2023-04-15T04:52:55;5.80;64.20
9425;DHT22;17139;52.140;11.636;2023-04-15T04:55:22;6.50;61.80
9425;DHT22;17139;52.140;11.636;2023-04-15T04:57:49;6.40;60.80
9425;DHT22;17139;52.140;11.636;2023-04-15T05:00:16;6.20;62.30
9425;DHT22;17139;52.140;11.636;2023-04-15T05:02:43;6.00;62.40
9425;DHT22;17139;52.140;11.636;2023-04-15T05:05:11;6.00;63.00
9425;DHT22;17139;52.140;11.636;2023-04-15T05:07:38;6.00;63.00
9425;DHT22;17139;52.140;11.636;2023-04-15T05:10:08;5.90;62.80
9425;DHT22;17139;52.140;11.636;2023-04-15T05:12:35;6.00;63.10
9425;DHT22;17139;52.140;11.636;2023-04-15T05:15:03;5.90;62.80
9425;DHT22;17139;52.140;11.636;2023-04-15T05:17:30;5.90;62.90
9425;DHT22;17139;52.140;11.636;2023-04-15T05:19:59;6.00;62.90
9425;DHT22;17139;52.140;11.636;2023-04-15T05:22:26;6.00;62.90
9425;DHT22;17139;52.140;11.636;2023-04-15T05:24:53;6.00;62.70
9425;DHT22;17139;52.140;11.636;2023-04-15T05:27:24;5.90;62.80
9425;DHT22;17139;52.140;11.636;2023-04-15T05:29:51;6.00;62.90
9425;DHT22;17139;52.140;11.636;2023-04-15T05:32:18;6.20;62.90
9425;DHT22;17139;52.140;11.636;2023-04-15T05:34:45;6.70;61.80
9425;DHT22;17139;52.140;11.636;2023-04-15T05:37:12;6.50;60.80
9425;DHT22;17139;52.140;11.636;2023-04-15T05:39:39;6.30;62.50
9425;DHT22;17139;52.140;11.636;2023-04-15T05:42:07;6.20;62.80
9425;DHT22;17139;52.140;11.636;2023-04-15T05:44:35;6.10;62.80
9425;DHT22;17139;52.140;11.636;2023-04-15T05:47:02;6.00;63.10
9425;DHT22;17139;52.140;11.636;2023-04-15T05:49:30;6.00;63.20
9425;DHT22;17139;52.140;11.636;2023-04-15T05:51:57;6.00;63.20
9425;DHT22;17139;52.140;11.636;2023-04-15T05:54:24;6.00;63.30
9425;DHT22;17139;52.140;11.636;2023-04-15T05:56:52;6.00;63.20
9425;DHT22;17139;52.140;11.636;2023-04-15T05:59:19;6.10;63.20
9425;DHT22;17139;52.140;11.636;2023-04-15T06:01:48;6.80;62.70
9425;DHT22;17139;52.140;11.636;2023-04-15T06:04:16;6.60;61.40
9425;DHT22;17139;52.140;11.636;2023-04-15T06:06:43;6.80;62.20
9425;DHT22;17139;52.140;11.636;2023-04-15T06:09:10;6.70;62.30
9425;DHT22;17139;52.140;11.636;2023-04-15T06:11:37;6.50;61.60
9425;DHT22;17139;52.140;11.636;2023-04-15T06:14:06;6.40;61.70
9425;DHT22;17139;52.140;11.636;2023-04-15T06:16:33;6.30;63.00
9425;DHT22;17139;52.140;11.636;2023-04-15T06:19:02;6.30;63.30
9425;DHT22;17139;52.140;11.636;2023-04-15T06:21:29;6.30;63.50
9425;DHT22;17139;52.140;11.636;2023-04-15T06:23:57;6.30;63.40
9425;DHT22;17139;52.140;11.636;2023-04-15T06:26:25;6.20;63.60
9425;DHT22;17139;52.140;11.636;2023-04-15T06:28:53;6.20;63.60
9425;DHT22;17139;52.140;11.636;2023-04-15T06:31:20;6.20;63.40
9425;DHT22;17139;52.140;11.636;2023-04-15T06:33:47;6.20;63.50
9425;DHT22;17139;52.140;11.636;2023-04-15T06:36:15;6.20;63.30
9425;DHT22;17139;52.140;11.636;2023-04-15T06:38:42;6.20;63.60
9425;DHT22;17139;52.140;11.636;2023-04-15T06:41:09;6.20;63.60
9425;DHT22;17139;52.140;11.636;2023-04-15T06:43:37;6.30;63.40
9425;DHT22;17139;52.140;11.636;2023-04-15T06:46:04;6.80;62.60
9425;DHT22;17139;52.140;11.636;2023-04-15T06:48:31;6.70;61.50
9425;DHT22;17139;52.140;11.636;2023-04-15T06:50:58;6.60;61.80
9425;DHT22;17139;52.140;11.636;2023-04-15T06:53:27;6.50;62.70
9425;DHT22;17139;52.140;11.636;2023-04-15T06:55:54;6.40;62.70
9425;DHT22;17139;52.140;11.636;2023-04-15T06:58:21;6.90;63.00
9425;DHT22;17139;52.140;11.636;2023-04-15T07:00:48;6.70;61.80
9425;DHT22;17139;52.140;11.636;2023-04-15T07:03:15;6.60;62.30
9425;DHT22;17139;52.140;11.636;2023-04-15T07:05:42;7.00;63.10
9425;DHT22;17139;52.140;11.636;2023-04-15T07:08:10;7.40;62.90
9425;DHT22;17139;52.140;11.636;2023-04-15T07:10:38;7.20;61.90
9425;DHT22;17139;52.140;11.636;2023-04-15T07:13:06;6.90;62.30
9425;DHT22;17139;52.140;11.636;2023-04-15T07:15:33;6.80;62.70
9425;DHT22;17139;52.140;11.636;2023-04-15T07:18:00;6.70;63.10
9425;DHT22;17139;52.140;11.636;2023-04-15T07:20:27;6.60;63.30
9425;DHT22;17139;52.140;11.636;2023-04-15T07:22:55;6.60;63.30
9425;DHT22;17139;52.140;11.636;2023-04-15T07:25:22;6.60;63.30
9425;DHT22;17139;52.140;11.636;2023-04-15T07:27:52;6.60;63.30
9425;DHT22;17139;52.140;11.636;2023-04-15T07:30:19;6.70;63.30
9425;DHT22;17139;52.140;11.636;2023-04-15T07:32:46;6.70;63.40
9425;DHT22;17139;52.140;11.636;2023-04-15T07:35:13;7.50;63.70
9425;DHT22;17139;52.140;11.636;2023-04-15T07:37:40;7.40;62.40
9425;DHT22;17139;52.140;11.636;2023-04-15T07:40:09;7.10;62.60
9425;DHT22;17139;52.140;11.636;2023-04-15T07:42:36;7.00;63.10
9425;DHT22;17139;52.140;11.636;2023-04-15T07:45:06;7.00;63.30
9425;DHT22;17139;52.140;11.636;2023-04-15T07:47:34;7.00;63.40
9425;DHT22;17139;52.140;11.636;2023-04-15T07:50:01;7.00;63.80
9425;DHT22;17139;52.140;11.636;2023-04-15T07:52:28;7.00;63.60
9425;DHT22;17139;52.140;11.636;2023-04-15T07:54:55;7.00;63.60
9425;DHT22;17139;52.140;11.636;2023-04-15T07:57:22;7.00;63.70
9425;DHT22;17139;52.140;11.636;2023-04-15T07:59:49;7.90;64.00
9425;DHT22;17139;52.140;11.636;2023-04-15T08:02:18;7.70;62.70
9425;DHT22;17139;52.140;11.636;2023-04-15T08:04:45;7.50;63.00
9425;DHT22;17139;52.140;11.636;2023-04-15T08:07:12;7.80;64.00
9425;DHT22;17139;52.140;11.636;2023-04-15T08:09:39;7.70;63.00
9425;DHT22;17139;52.140;11.636;2023-04-15T08:12:06;7.60;63.20
9425;DHT22;17139;52.140;11.636;2023-04-15T08:14:37;7.50;63.50
9425;DHT22;17139;52.140;11.636;2023-04-15T08:17:04;7.50;63.60
9425;DHT22;17139;52.140;11.636;2023-04-15T08:19:32;7.50;63.50
9425;DHT22;17139;52.140;11.636;2023-04-15T08:21:59;7.50;63.80
9425;DHT22;17139;52.140;11.636;2023-04-15T08:24:27;7.50;63.50
9425;DHT22;17139;52.140;11.636;2023-04-15T08:26:54;7.60;63.60
9425;DHT22;17139;52.140;11.636;2023-04-15T08:29:21;7.50;63.40
9425;DHT22;17139;52.140;11.636;2023-04-15T08:31:48;8.20;64.30
9425;DHT22;17139;52.140;11.636;2023-04-15T08:34:15;8.10;63.00
9425;DHT22;17139;52.140;11.636;2023-04-15T08:36:44;7.90;63.20
9425;DHT22;17139;52.140;11.636;2023-04-15T08:39:11;7.80;63.60
9425;DHT22;17139;52.140;11.636;2023-04-15T08:41:41;7.80;63.80
9425;DHT22;17139;52.140;11.636;2023-04-15T08:44:12;7.80;63.80
9425;DHT22;17139;52.140;11.636;2023-04-15T08:46:40;7.80;63.90
9425;DHT22;17139;52.140;11.636;2023-04-15T08:49:10;7.80;63.90
9425;DHT22;17139;52.140;11.636;2023-04-15T08:51:39;7.80;64.50
9425;DHT22;17139;52.140;11.636;2023-04-15T08:54:08;7.80;64.40
9425;DHT22;17139;52.140;11.636;2023-04-15T08:56:37;7.90;64.30
9425;DHT22;17139;52.140;11.636;2023-04-15T08:59:06;7.90;64.20
9425;DHT22;17139;52.140;11.636;2023-04-15T09:01:33;8.00;64.10
9425;DHT22;17139;52.140;11.636;2023-04-15T09:04:02;8.20;64.40
9425;DHT22;17139;52.140;11.636;2023-04-15T09:06:31;8.50;64.20
9425;DHT22;17139;52.140;11.636;2023-04-15T09:08:58;8.40;64.00
9425;DHT22;17139;52.140;11.636;2023-04-15T09:11:26;8.80;65.00
9425;DHT22;17139;52.140;11.636;2023-04-15T09:13:55;8.70;63.20
9425;DHT22;17139;52.140;11.636;2023-04-15T09:16:22;8.50;63.30
9425;DHT22;17139;52.140;11.636;2023-04-15T09:18:50;8.50;64.40
9425;DHT22;17139;52.140;11.636;2023-04-15T09:21:17;8.40;63.80
9425;DHT22;17139;52.140;11.636;2023-04-15T09:23:54;8.30;63.80
9425;DHT22;17139;52.140;11.636;2023-04-15T09:26:32;9.20;64.90
9425;DHT22;17139;52.140;11.636;2023-04-15T09:29:04;8.90;63.30
9425;DHT22;17139;52.140;11.636;2023-04-15T09:31:32;9.30;64.50
9425;DHT22;17139;52.140;11.636;2023-04-15T09:33:59;9.90;64.00
9425;DHT22;17139;52.140;11.636;2023-04-15T09:36:26;9.50;63.00
9425;DHT22;17139;52.140;11.636;2023-04-15T09:38:55;9.10;63.40
9425;DHT22;17139;52.140;11.636;2023-04-15T09:41:23;8.90;63.80
9425;DHT22;17139;52.140;11.636;2023-04-15T09:43:52;8.80;64.20
9425;DHT22;17139;52.140;11.636;2023-04-15T09:46:19;8.70;64.30
9425;DHT22;17139;52.140;11.636;2023-04-15T09:48:46;8.70;64.50
9425;DHT22;17139;52.140;11.636;2023-04-15T09:51:13;8.70;64.30
9425;DHT22;17139;52.140;11.636;2023-04-15T09:53:40;8.70;64.20
9425;DHT22;17139;52.140;11.636;2023-04-15T09:56:07;8.70;64.10
9425;DHT22;17139;52.140;11.636;2023-04-15T09:58:35;8.90;64.40
9425;DHT22;17139;52.140;11.636;2023-04-15T10:01:05;9.20;64.60
9425;DHT22;17139;52.140;11.636;2023-04-15T10:03:33;9.10;63.70
9425;DHT22;17139;52.140;11.636;2023-04-15T10:06:01;9.00;64.00
9425;DHT22;17139;52.140;11.636;2023-04-15T10:08:33;9.00;64.10
9425;DHT22;17139;52.140;11.636;2023-04-15T10:11:01;8.90;64.10
9425;DHT22;17139;52.140;11.636;2023-04-15T10:13:32;8.90;64.30
9425;DHT22;17139;52.140;11.636;2023-04-15T10:16:06;8.90;64.30
9425;DHT22;17139;52.140;11.636;2023-04-15T10:18:39;8.90;64.50
9425;DHT22;17139;52.140;11.636;2023-04-15T10:21:09;8.80;65.40
9425;DHT22;17139;52.140;11.636;2023-04-15T10:23:38;8.80;64.80
9425;DHT22;17139;52.140;11.636;2023-04-15T10:26:06;8.80;64.80
9425;DHT22;17139;52.140;11.636;2023-04-15T10:28:34;8.80;64.90
9425;DHT22;17139;52.140;11.636;2023-04-15T10:31:01;8.80;65.20
9425;DHT22;17139;52.140;11.636;2023-04-15T10:33:31;8.80;64.90
9425;DHT22;17139;52.140;11.636;2023-04-15T10:35:59;8.80;64.90
9425;DHT22;17139;52.140;11.636;2023-04-15T10:38:34;8.80;64.80
9425;DHT22;17139;52.140;11.636;2023-04-15T10:41:16;8.90;64.80
9425;DHT22;17139;52.140;11.636;2023-04-15T10:43:48;9.00;64.50
9425;DHT22;17139;52.140;11.636;2023-04-15T10:46:21;9.00;64.60
9425;DHT22;17139;52.140;11.636;2023-04-15T10:48:51;9.30;65.00
9425;DHT22;17139;52.140;11.636;2023-04-15T10:51:29;9.70;64.90
9425;DHT22;17139;52.140;11.636;2023-04-15T10:53:58;9.60;64.00
9425;DHT22;17139;52.140;11.636;2023-04-15T10:56:27;9.40;64.40
9425;DHT22;17139;52.140;11.636;2023-04-15T10:58:54;9.30;64.60
9425;DHT22;17139;52.140;11.636;2023-04-15T11:01:22;9.20;64.60
9425;DHT22;17139;52.140;11.636;2023-04-15T11:03:50;9.20;64.80
9425;DHT22;17139;52.140;11.636;2023-04-15T11:06:17;9.20;65.00
9425;DHT22;17139;52.140;11.636;2023-04-15T11:08:55;9.20;65.20
9425;DHT22;17139;52.140;11.636;2023-04-15T11:14:29;10.10;64.80
9425;DHT22;17139;52.140;11.636;2023-04-15T11:16:58;9.70;64.10
9425;DHT22;17139;52.140;11.636;2023-04-15T11:19:35;9.50;64.30
9425;DHT22;17139;52.140;11.636;2023-04-15T11:22:06;10.20;64.60
9425;DHT22;17139;52.140;11.636;2023-04-15T11:24:34;9.90;64.00
9425;DHT22;17139;52.140;11.636;2023-04-15T11:27:01;9.60;64.50
9425;DHT22;17139;52.140;11.636;2023-04-15T11:29:29;9.50;64.90
9425;DHT22;17139;52.140;11.636;2023-04-15T11:32:04;9.40;65.20
9425;DHT22;17139;52.140;11.636;2023-04-15T11:34:33;9.40;65.20
9425;DHT22;17139;52.140;11.636;2023-04-15T11:37:03;9.40;65.20
9425;DHT22;17139;52.140;11.636;2023-04-15T11:39:32;9.40;65.20
9425;DHT22;17139;52.140;11.636;2023-04-15T11:41:59;9.30;65.10
9425;DHT22;17139;52.140;11.636;2023-04-15T11:44:26;9.40;65.20
9425;DHT22;17139;52.140;11.636;2023-04-15T11:46:54;9.50;65.30
9425;DHT22;17139;52.140;11.636;2023-04-15T11:49:28;9.80;65.00
9425;DHT22;17139;52.140;11.636;2023-04-15T11:51:59;9.70;64.50
9425;DHT22;17139;52.140;11.636;2023-04-15T11:54:27;9.50;64.90
9425;DHT22;17139;52.140;11.636;2023-04-15T11:56:54;9.40;65.30
9425;DHT22;17139;52.140;11.636;2023-04-15T11:59:22;9.30;65.40
9425;DHT22;17139;52.140;11.636;2023-04-15T12:01:49;9.20;65.60
9425;DHT22;17139;52.140;11.636;2023-04-15T12:04:17;9.20;65.80
9425;DHT22;17139;52.140;11.636;2023-04-15T12:06:47;9.10;66.20
9425;DHT22;17139;52.140;11.636;2023-04-15T12:09:15;9.10;66.20
9425;DHT22;17139;52.140;11.636;2023-04-15T12:11:44;9.90;65.80
9425;DHT22;17139;52.140;11.636;2023-04-15T12:14:24;9.60;65.00
9425;DHT22;17139;52.140;11.636;2023-04-15T12:16:52;9.60;65.70
9425;DHT22;17139;52.140;11.636;2023-04-15T12:19:25;9.40;65.70
9425;DHT22;17139;52.140;11.636;2023-04-15T12:21:54;9.20;66.00
9425;DHT22;17139;52.140;11.636;2023-04-15T12:24:24;9.10;66.30
9425;DHT22;17139;52.140;11.636;2023-04-15T12:26:52;9.10;66.50
9425;DHT22;17139;52.140;11.636;2023-04-15T12:29:25;9.00;66.40
9425;DHT22;17139;52.140;11.636;2023-04-15T12:31:55;9.00;66.30
9425;DHT22;17139;52.140;11.636;2023-04-15T12:34:27;9.00;66.40
9425;DHT22;17139;52.140;11.636;2023-04-15T12:36:55;9.00;66.40
9425;DHT22;17139;52.140;11.636;2023-04-15T12:39:25;8.90;66.30
9425;DHT22;17139;52.140;11.636;2023-04-15T12:41:53;9.10;66.60
9425;DHT22;17139;52.140;11.636;2023-04-15T12:44:21;9.00;66.10
9425;DHT22;17139;52.140;11.636;2023-04-15T12:46:49;9.00;66.30
9425;DHT22;17139;52.140;11.636;2023-04-15T12:49:17;8.90;66.60
9425;DHT22;17139;52.140;11.636;2023-04-15T12:51:46;8.80;66.60
9425;DHT22;17139;52.140;11.636;2023-04-15T12:54:13;8.80;66.90
9425;DHT22;17139;52.140;11.636;2023-04-15T12:56:42;8.90;66.90
9425;DHT22;17139;52.140;11.636;2023-04-15T12:59:10;8.90;66.80
9425;DHT22;17139;52.140;11.636;2023-04-15T13:01:41;8.90;67.00
9425;DHT22;17139;52.140;11.636;2023-04-15T13:04:08;9.70;66.60
9425;DHT22;17139;52.140;11.636;2023-04-15T13:06:35;9.40;65.70
9425;DHT22;17139;52.140;11.636;2023-04-15T13:09:03;9.70;65.80
9425;DHT22;17139;52.140;11.636;2023-04-15T13:11:31;9.40;65.90
9425;DHT22;17139;52.140;11.636;2023-04-15T13:14:00;9.20;66.20
9425;DHT22;17139;52.140;11.636;2023-04-15T13:16:27;9.10;66.60
9425;DHT22;17139;52.140;11.636;2023-04-15T13:18:54;9.00;66.70
9425;DHT22;17139;52.140;11.636;2023-04-15T13:21:21;9.00;66.70
9425;DHT22;17139;52.140;11.636;2023-04-15T13:23:49;9.00;66.70
9425;DHT22;17139;52.140;11.636;2023-04-15T13:26:16;9.50;67.10
9425;DHT22;17139;52.140;11.636;2023-04-15T13:28:43;10.10;66.70
9425;DHT22;17139;52.140;11.636;2023-04-15T13:31:12;9.80;65.70
9425;DHT22;17139;52.140;11.636;2023-04-15T13:33:39;9.50;66.10
9425;DHT22;17139;52.140;11.636;2023-04-15T13:36:06;9.40;66.40
9425;DHT22;17139;52.140;11.636;2023-04-15T13:38:33;9.30;66.60
9425;DHT22;17139;52.140;11.636;2023-04-15T13:41:00;9.30;66.70
9425;DHT22;17139;52.140;11.636;2023-04-15T13:43:28;9.20;66.70
9425;DHT22;17139;52.140;11.636;2023-04-15T13:45:56;9.30;67.10
9425;DHT22;17139;52.140;11.636;2023-04-15T13:48:24;9.30;66.60
9425;DHT22;17139;52.140;11.636;2023-04-15T13:50:51;9.90;67.30
9425;DHT22;17139;52.140;11.636;2023-04-15T13:53:18;9.70;66.10
9425;DHT22;17139;52.140;11.636;2023-04-15T13:55:45;9.50;66.40
9425;DHT22;17139;52.140;11.636;2023-04-15T13:58:12;9.30;66.60
9425;DHT22;17139;52.140;11.636;2023-04-15T14:00:39;9.30;66.90
9425;DHT22;17139;52.140;11.636;2023-04-15T14:03:07;9.20;67.00
9425;DHT22;17139;52.140;11.636;2023-04-15T14:05:35;9.10;66.90
9425;DHT22;17139;52.140;11.636;2023-04-15T14:08:03;9.10;67.00
9425;DHT22;17139;52.140;11.636;2023-04-15T14:10:30;9.30;67.60
9425;DHT22;17139;52.140;11.636;2023-04-15T14:12:57;9.30;66.90
9425;DHT22;17139;52.140;11.636;2023-04-15T14:15:24;9.30;67.00
9425;DHT22;17139;52.140;11.636;2023-04-15T14:17:51;9.20;67.00
9425;DHT22;17139;52.140;11.636;2023-04-15T14:20:18;9.30;67.10
9425;DHT22;17139;52.140;11.636;2023-04-15T14:22:47;9.20;67.10
9425;DHT22;17139;52.140;11.636;2023-04-15T14:25:14;9.30;67.20
9425;DHT22;17139;52.140;11.636;2023-04-15T14:27:41;9.30;67.20
9425;DHT22;17139;52.140;11.636;2023-04-15T14:30:09;9.30;67.10
9425;DHT22;17139;52.140;11.636;2023-04-15T14:32:36;9.30;67.20
9425;DHT22;17139;52.140;11.636;2023-04-15T14:35:03;9.30;67.10
9425;DHT22;17139;52.140;11.636;2023-04-15T14:37:30;10.10;67.40
9425;DHT22;17139;52.140;11.636;2023-04-15T14:39:58;10.00;66.40
9425;DHT22;17139;52.140;11.636;2023-04-15T14:42:25;9.80;66.60
9425;DHT22;17139;52.140;11.636;2023-04-15T14:44:52;10.20;67.30
9425;DHT22;17139;52.140;11.636;2023-04-15T14:47:19;10.00;66.40
9425;DHT22;17139;52.140;11.636;2023-04-15T14:49:46;10.10;67.60
9425;DHT22;17139;52.140;11.636;2023-04-15T14:52:13;10.00;66.60
9425;DHT22;17139;52.140;11.636;2023-04-15T14:54:40;10.70;67.50
9425;DHT22;17139;52.140;11.636;2023-04-15T14:57:09;10.40;66.20
9425;DHT22;17139;52.140;11.636;2023-04-15T14:59:36;10.20;66.50
9425;DHT22;17139;52.140;11.636;2023-04-15T15:02:03;10.00;67.00
9425;DHT22;17139;52.140;11.636;2023-04-15T15:04:30;9.80;67.20
9425;DHT22;17139;52.140;11.636;2023-04-15T15:06:58;9.70;67.50
9425;DHT22;17139;52.140;11.636;2023-04-15T15:09:25;9.70;68.00
9425;DHT22;17139;52.140;11.636;2023-04-15T15:11:52;9.60;68.00
9425;DHT22;17139;52.140;11.636;2023-04-15T15:14:20;9.70;68.10
9425;DHT22;17139;52.140;11.636;2023-04-15T15:16:47;9.70;67.70
9425;DHT22;17139;52.140;11.636;2023-04-15T15:19:15;9.70;67.60
9425;DHT22;17139;52.140;11.636;2023-04-15T15:21:42;9.60;67.70
9425;DHT22;17139;52.140;11.636;2023-04-15T15:24:09;9.60;68.00
9425;DHT22;17139;52.140;11.636;2023-04-15T15:26:36;9.50;68.00
9425;DHT22;17139;52.140;11.636;2023-04-15T15:29:03;9.50;68.20
9425;DHT22;17139;52.140;11.636;2023-04-15T15:33:59;9.50;68.00
9425;DHT22;17139;52.140;11.636;2023-04-15T15:36:26;10.30;67.70
9425;DHT22;17139;52.140;11.636;2023-04-15T15:38:53;10.10;66.80
9425;DHT22;17139;52.140;11.636;2023-04-15T15:41:20;10.40;66.90
9425;DHT22;17139;52.140;11.636;2023-04-15T15:43:47;10.20;66.40
9425;DHT22;17139;52.140;11.636;2023-04-15T15:46:14;10.00;67.00
9425;DHT22;17139;52.140;11.636;2023-04-15T15:48:43;9.80;67.30
9425;DHT22;17139;52.140;11.636;2023-04-15T15:51:10;9.80;67.60
9425;DHT22;17139;52.140;11.636;2023-04-15T15:53:37;10.50;67.50
9425;DHT22;17139;52.140;11.636;2023-04-15T15:56:04;10.20;66.60